Time;durP1;ratioP1;P1;durP2;ratioP2;P2;SDS_P1;SDS_P2;PMS_P1;PMS_P2;Temp;Humidity;BMP_temperature;BMP_pressure;BME280_temperature;BME280_humidity;BME280_pressure;Samples;Min_cycle;Max_cycle;Signal;HPM_P1;HPM_P2
2024/01/01 00:00:30;;;;;;;173.50;101.03;;;;;;;5.93;100.00;99603.94;5052743;28;20044;-73
2024/01/01 00:02:55;;;;;;;180.95;105.13;;;;;;;5.93;100.00;99601.16;5051388;28;20036;-72
2024/01/01 00:05:21;;;;;;;190.23;104.78;;;;;;;5.88;100.00;99591.81;5052564;28;20327;-72
2024/01/01 00:07:51;;;;;;;183.80;105.30;;;;;;;5.91;100.00;99598.69;5052569;28;20063;-72
2024/01/01 00:10:19;;;;;;;187.18;105.93;;;;;;;5.97;100.00;99613.31;5051067;28;20086;-72
2024/01/01 00:12:48;;;;;;;196.52;112.88;;;;;;;5.87;100.00;99597.66;5052416;28;20486;-72
2024/01/01 00:15:13;;;;;;;173.48;97.43;;;;;;;5.84;100.00;99598.25;5044048;28;20071;-72
2024/01/01 00:17:40;;;;;;;173.23;100.55;;;;;;;5.86;100.00;99599.63;5032445;28;20112;-72
2024/01/01 00:20:06;;;;;;;181.90;106.85;;;;;;;5.79;100.00;99596.38;5032290;28;20029;-72
2024/01/01 00:22:32;;;;;;;206.73;117.38;;;;;;;5.81;100.00;99598.88;5031980;28;20516;-72
2024/01/01 00:24:58;;;;;;;217.63;118.18;;;;;;;5.78;100.00;99608.59;5063304;28;20029;-72
2024/01/01 00:27:24;;;;;;;214.30;116.63;;;;;;;5.71;100.00;99597.88;5036261;28;20026;-72
2024/01/01 00:29:50;;;;;;;204.30;113.97;;;;;;;5.59;100.00;99601.06;5032739;28;20349;-72
2024/01/01 00:32:16;;;;;;;191.85;110.93;;;;;;;5.45;100.00;99606.56;5050815;28;20021;-74
2024/01/01 00:34:42;;;;;;;182.77;108.85;;;;;;;5.45;100.00;99601.00;5050609;28;20028;-74
2024/01/01 00:37:07;;;;;;;191.80;107.70;;;;;;;5.52;100.00;99602.56;5049716;28;20460;-74
2024/01/01 00:39:33;;;;;;;173.18;100.38;;;;;;;5.15;100.00;99585.56;5031802;28;20025;-74
2024/01/01 00:42:03;;;;;;;188.27;104.22;;;;;;;5.30;100.00;99592.84;5031992;28;20025;-74
2024/01/01 00:44:29;;;;;;;190.57;104.78;;;;;;;5.36;100.00;99588.91;5039765;28;20028;-74
2024/01/01 00:46:54;;;;;;;189.75;107.40;;;;;;;5.45;100.00;99589.91;5051695;28;20502;-74
2024/01/01 00:49:20;;;;;;;183.00;103.78;;;;;;;5.41;100.00;99588.03;5051590;28;20029;-74
2024/01/01 00:51:45;;;;;;;176.93;101.95;;;;;;;5.37;100.00;99593.34;5050133;28;20020;-74
2024/01/01 00:54:11;;;;;;;186.00;103.38;;;;;;;5.35;100.00;99595.59;5040025;28;20072;-74
2024/01/01 00:56:37;;;;;;;182.52;102.78;;;;;;;5.44;100.00;99588.25;5030492;28;20107;-74
2024/01/01 00:59:02;;;;;;;179.80;100.18;;;;;;;5.45;100.00;99589.91;5048876;28;20025;-74
2024/01/01 01:01:27;;;;;;;181.55;100.15;;;;;;;5.30;100.00;99581.75;5051364;28;20028;-74
2024/01/01 01:03:53;;;;;;;184.30;101.47;;;;;;;5.15;100.00;99589.16;5051757;28;20020;-74
2024/01/01 01:09:44;;;;;;;172.43;96.78;;;;;;;5.01;100.00;99560.50;5346209;23;20056;-72
2024/01/01 01:12:10;;;;;;;187.45;103.68;;;;;;;5.00;100.00;99575.47;5077418;28;20373;-73
2024/01/01 01:14:35;;;;;;;184.40;104.57;;;;;;;4.64;100.00;99577.53;5089213;28;20027;-72
2024/01/01 01:17:01;;;;;;;200.75;114.90;;;;;;;4.05;100.00;99571.13;5086266;28;20028;-73
2024/01/01 01:19:26;;;;;;;217.57;127.03;;;;;;;4.26;100.00;99574.56;5073153;28;20517;-73
2024/01/01 01:21:52;;;;;;;238.52;133.82;;;;;;;4.52;100.00;99568.78;5053065;28;20055;-73
2024/01/01 01:24:18;;;;;;;221.85;127.78;;;;;;;4.62;100.00;99574.22;5053195;28;20039;-72
2024/01/01 01:26:43;;;;;;;246.40;131.93;;;;;;;4.79;100.00;99570.16;5053429;28;20197;-73
2024/01/01 01:29:09;;;;;;;235.52;133.85;;;;;;;4.44;100.00;99556.41;5091409;28;20032;-72
2024/01/01 01:31:35;;;;;;;238.23;133.63;;;;;;;4.40;100.00;99566.38;5090907;28;20062;-72
2024/01/01 01:34:01;;;;;;;248.68;141.18;;;;;;;3.83;100.00;99563.25;5067768;28;20034;-73
2024/01/01 01:36:26;;;;;;;206.60;116.03;;;;;;;3.73;100.00;99566.94;5091193;28;20028;-72
2024/01/01 01:38:52;;;;;;;208.75;114.10;;;;;;;3.78;100.00;99556.66;5091355;28;20158;-72
2024/01/01 01:41:17;;;;;;;214.50;120.15;;;;;;;4.03;100.00;99567.81;5091168;28;20487;-72
2024/01/01 01:43:43;;;;;;;290.73;169.88;;;;;;;4.22;100.00;99573.47;5072390;28;20024;-72
2024/01/01 01:46:09;;;;;;;225.98;132.52;;;;;;;4.32;100.00;99559.53;5091054;28;20040;-72
2024/01/01 01:48:35;;;;;;;216.68;128.10;;;;;;;4.35;100.00;99561.75;5082066;28;20122;-72
2024/01/01 01:51:01;;;;;;;209.68;116.38;;;;;;;4.29;100.00;99564.84;5073277;28;20551;-73
2024/01/01 01:53:28;;;;;;;197.80;114.75;;;;;;;4.40;100.00;99558.06;5072927;28;20016;-72
2024/01/01 01:55:56;;;;;;;187.85;107.28;;;;;;;4.50;100.00;99559.94;5072977;28;20028;-72
2024/01/01 01:58:22;;;;;;;178.20;106.38;;;;;;;3.88;100.00;99554.94;5087488;28;20028;-72
2024/01/01 02:00:49;;;;;;;187.68;100.90;;;;;;;3.72;100.00;99560.56;5090969;28;20043;-72
2024/01/01 02:03:15;;;;;;;168.00;94.38;;;;;;;3.95;100.00;99552.66;5092689;28;20020;-72
2024/01/01 02:05:40;;;;;;;181.55;105.45;;;;;;;3.48;100.00;99555.72;5095262;28;20529;-72
2024/01/01 02:08:07;;;;;;;216.10;116.90;;;;;;;3.65;100.00;99557.31;5066100;28;20044;-72
2024/01/01 02:10:33;;;;;;;187.95;105.15;;;;;;;3.57;100.00;99544.91;5056926;28;20048;-72
2024/01/01 02:13:02;;;;;;;180.35;104.15;;;;;;;3.81;100.00;99537.81;5054966;28;20033;-72
2024/01/01 02:15:27;;;;;;;178.93;102.90;;;;;;;3.78;100.00;99531.75;5054740;28;20025;-72
2024/01/01 02:17:53;;;;;;;177.95;97.85;;;;;;;3.58;100.00;99538.25;5075217;28;20032;-73
2024/01/01 02:20:18;;;;;;;179.70;93.50;;;;;;;3.63;100.00;99537.41;5076582;28;20024;-72
2024/01/01 02:22:44;;;;;;;160.68;89.60;;;;;;;3.54;100.00;99534.41;5092329;28;20510;-74
2024/01/01 02:25:10;;;;;;;172.25;92.28;;;;;;;3.68;100.00;99533.75;5074562;28;20561;-74
2024/01/01 02:27:37;;;;;;;170.00;93.53;;;;;;;3.47;100.00;99533.91;5074682;28;20485;-74
2024/01/01 02:30:03;;;;;;;345.90;186.95;;;;;;;3.23;100.00;99527.09;5056483;28;20032;-74
2024/01/01 02:32:29;;;;;;;433.17;248.40;;;;;;;3.32;100.00;99524.59;5056636;28;20125;-74
2024/01/01 02:34:54;;;;;;;303.65;163.68;;;;;;;3.46;100.00;99521.19;5074456;28;20040;-74
2024/01/01 02:37:20;;;;;;;245.07;132.88;;;;;;;3.54;100.00;99511.47;5056578;28;20032;-75
2024/01/01 02:39:45;;;;;;;204.10;110.32;;;;;;;3.52;100.00;99511.75;5056721;28;20029;-74
2024/01/01 02:42:11;;;;;;;173.40;98.57;;;;;;;3.81;100.00;99515.69;5056164;28;20054;-74
2024/01/01 02:44:36;;;;;;;158.23;93.13;;;;;;;3.91;100.00;99521.94;5053672;28;20458;-74
2024/01/01 02:47:02;;;;;;;153.90;84.63;;;;;;;3.64;100.00;99516.94;5051747;28;20110;-74
2024/01/01 02:49:27;;;;;;;157.27;86.20;;;;;;;3.54;100.00;99511.47;5094490;28;20077;-75
2024/01/01 02:51:53;;;;;;;141.57;83.75;;;;;;;3.53;100.00;99509.81;5076163;28;20111;-74
2024/01/01 02:54:19;;;;;;;171.68;90.68;;;;;;;3.37;100.00;99515.41;5094553;28;20016;-74
2024/01/01 02:56:44;;;;;;;185.90;102.00;;;;;;;3.26;100.00;99506.38;5076061;28;20027;-74
2024/01/01 02:59:10;;;;;;;183.02;100.65;;;;;;;3.18;100.00;99521.63;5094477;28;20093;-74
2024/01/01 03:01:36;;;;;;;177.38;97.07;;;;;;;3.21;100.00;99515.50;5075969;28;20020;-74
2024/01/01 03:04:01;;;;;;;177.95;94.88;;;;;;;3.11;100.00;99512.78;5076021;28;20069;-74
2024/01/01 03:06:27;;;;;;;173.10;88.88;;;;;;;3.08;100.00;99510.63;5056803;28;20035;-74
2024/01/01 03:08:52;;;;;;;161.40;89.10;;;;;;;3.30;100.00;99509.41;5055934;28;20052;-74
2024/01/01 03:11:18;;;;;;;164.98;91.10;;;;;;;3.54;100.00;99506.75;5073798;28;20028;-74
2024/01/01 03:13:43;;;;;;;160.85;86.07;;;;;;;3.67;100.00;99494.22;5055476;28;20012;-74
2024/01/01 03:16:09;;;;;;;153.02;76.80;;;;;;;3.50;100.00;99505.66;5073696;28;20031;-74
2024/01/01 03:18:35;;;;;;;136.82;77.97;;;;;;;3.78;100.00;99498.56;5070638;28;20020;-75
2024/01/01 03:21:00;;;;;;;246.05;131.55;;;;;;;3.79;100.00;99494.66;5093852;28;20024;-74
2024/01/01 03:23:26;;;;;;;210.10;118.88;;;;;;;3.59;100.00;99506.72;5076535;28;20446;-74
2024/01/01 03:25:51;;;;;;;200.70;108.43;;;;;;;3.78;100.00;99515.16;5085393;28;20040;-74
2024/01/01 03:28:17;;;;;;;155.80;87.30;;;;;;;3.74;100.00;99491.94;5055585;28;20035;-74
2024/01/01 03:30:43;;;;;;;156.57;88.72;;;;;;;3.58;100.00;99495.94;5060188;28;20107;-74
2024/01/01 03:33:09;;;;;;;154.70;83.53;;;;;;;3.50;100.00;99506.50;5053572;28;20027;-74
2024/01/01 03:35:34;;;;;;;156.77;88.32;;;;;;;3.17;100.00;99508.06;5042247;28;20094;-74
2024/01/01 03:38:01;;;;;;;124.57;74.45;;;;;;;3.19;100.00;99508.59;5053283;28;20047;-74
2024/01/01 03:40:27;;;;;;;120.90;65.65;;;;;;;3.21;100.00;99509.97;5053212;28;20029;-74
2024/01/01 03:42:53;;;;;;;120.70;66.90;;;;;;;3.04;100.00;99502.06;5051789;28;20028;-74
2024/01/01 03:45:19;;;;;;;122.57;67.47;;;;;;;2.72;100.00;99508.00;5053057;28;20463;-74
2024/01/01 03:47:44;;;;;;;106.63;57.28;;;;;;;2.77;100.00;99505.22;5058232;28;20122;-74
2024/01/01 03:50:10;;;;;;;79.20;46.72;;;;;;;2.67;100.00;99504.16;5035180;28;20033;-74
2024/01/01 03:52:35;;;;;;;80.72;46.60;;;;;;;2.71;100.00;99500.81;5068433;28;20032;-74
2024/01/01 03:55:01;;;;;;;77.95;42.17;;;;;;;2.70;100.00;99501.94;5055187;28;20020;-74
2024/01/01 03:57:26;;;;;;;92.43;47.65;;;;;;;2.57;100.00;99503.34;5054380;28;20047;-74
2024/01/01 03:59:52;;;;;;;82.90;49.00;;;;;;;2.34;100.00;99509.22;5072882;28;20099;-74
2024/01/01 04:02:18;;;;;;;86.32;46.67;;;;;;;2.21;100.00;99495.97;5072676;28;20078;-74
2024/01/01 04:04:44;;;;;;;115.93;68.45;;;;;;;2.18;100.00;99496.56;5054829;28;20043;-74
2024/01/01 04:07:12;;;;;;;191.32;107.85;;;;;;;2.21;100.00;99504.25;5048569;28;20499;-74
2024/01/01 04:09:38;;;;;;;143.10;82.10;;;;;;;2.27;100.00;99505.09;5052633;28;20048;-74
2024/01/01 04:12:03;;;;;;;111.22;62.35;;;;;;;2.31;100.00;99495.13;5052846;28;20090;-74
2024/01/01 04:14:29;;;;;;;76.82;42.38;;;;;;;2.24;100.00;99498.19;5034778;28;20164;-74
2024/01/01 04:16:54;;;;;;;94.07;47.83;;;;;;;2.21;100.00;99498.75;5054991;28;20036;-73
2024/01/01 04:19:21;;;;;;;82.38;44.13;;;;;;;2.24;100.00;99492.66;5074658;28;20036;-74
2024/01/01 04:21:47;;;;;;;79.35;44.60;;;;;;;2.41;100.00;99494.28;5074634;28;20032;-74
2024/01/01 04:24:13;;;;;;;76.78;43.60;;;;;;;2.38;100.00;99495.69;5074375;28;20499;-74
2024/01/01 04:26:38;;;;;;;83.78;47.55;;;;;;;2.03;100.00;99497.38;5073660;28;20089;-74
2024/01/01 04:29:04;;;;;;;101.18;54.83;;;;;;;2.14;100.00;99493.50;5043476;28;20116;-74
2024/01/01 04:31:29;;;;;;;141.77;78.88;;;;;;;1.84;100.00;99488.84;5034463;28;20032;-74
2024/01/01 04:33:55;;;;;;;294.10;162.52;;;;;;;1.70;100.00;99483.88;5059083;28;20090;-74
2024/01/01 04:36:21;;;;;;;207.60;111.53;;;;;;;2.01;100.00;99480.28;5072057;28;20056;-74
2024/01/01 04:38:47;;;;;;;133.02;72.60;;;;;;;2.14;100.00;99481.63;5053945;28;20565;-74
2024/01/01 04:41:12;;;;;;;122.38;69.40;;;;;;;2.36;100.00;99478.56;5072253;28;20025;-74
2024/01/01 04:43:41;;;;;;;130.73;77.03;;;;;;;2.43;100.00;99476.31;5071902;28;20024;-72
2024/01/01 04:46:09;;;;;;;159.45;91.38;;;;;;;2.58;100.00;99478.22;5071955;28;20560;-72
2024/01/01 04:48:34;;;;;;;108.18;59.15;;;;;;;2.50;100.00;99476.88;5079836;28;20020;-72
2024/01/01 04:51:00;;;;;;;108.25;59.85;;;;;;;2.38;100.00;99470.84;5053985;28;20428;-72
2024/01/01 04:53:26;;;;;;;105.95;59.40;;;;;;;2.59;100.00;99481.78;5053840;28;20047;-72
2024/01/01 04:55:51;;;;;;;101.28;57.85;;;;;;;2.86;100.00;99475.88;5071880;28;20063;-72
2024/01/01 04:58:17;;;;;;;105.53;58.38;;;;;;;2.95;100.00;99468.66;5070946;28;20044;-72
2024/01/01 05:00:42;;;;;;;98.63;55.53;;;;;;;3.01;100.00;99477.75;5071703;28;20031;-72
2024/01/01 05:03:08;;;;;;;102.78;59.28;;;;;;;3.15;100.00;99471.59;5071473;28;20017;-72
2024/01/01 05:05:33;;;;;;;98.65;55.63;;;;;;;3.14;100.00;99470.78;5053886;28;20024;-72
2024/01/01 05:07:59;;;;;;;101.20;59.72;;;;;;;3.13;100.00;99469.13;5053520;28;20020;-72
2024/01/01 05:10:25;;;;;;;116.97;60.13;;;;;;;3.20;100.00;99466.06;5066348;28;20037;-72
2024/01/01 05:12:50;;;;;;;107.10;59.78;;;;;;;3.15;100.00;99455.00;5035082;28;20485;-72
2024/01/01 05:15:16;;;;;;;118.57;62.97;;;;;;;3.21;100.00;99464.94;5033721;28;20063;-72
2024/01/01 05:17:41;;;;;;;106.28;62.88;;;;;;;3.03;100.00;99464.47;5040899;28;20028;-72
2024/01/01 05:20:07;;;;;;;108.40;59.40;;;;;;;2.96;100.00;99466.75;5053487;28;20102;-72
2024/01/01 05:22:33;;;;;;;102.00;58.95;;;;;;;2.90;100.00;99474.22;5053180;28;20024;-72
2024/01/01 05:24:58;;;;;;;95.15;58.05;;;;;;;2.39;100.00;99483.53;5071289;28;20558;-72
2024/01/01 05:27:25;;;;;;;105.38;59.15;;;;;;;2.51;100.00;99474.91;5052900;28;20482;-72
2024/01/01 05:29:51;;;;;;;100.80;59.38;;;;;;;2.70;100.00;99477.06;5049303;28;20036;-72
2024/01/01 05:32:16;;;;;;;112.70;64.75;;;;;;;2.75;100.00;99479.81;5052101;28;20028;-72
2024/01/01 05:34:42;;;;;;;115.78;66.82;;;;;;;2.66;100.00;99463.00;5071174;28;20574;-72
2024/01/01 05:37:08;;;;;;;113.30;62.45;;;;;;;2.72;100.00;99469.31;5071145;28;20058;-72
2024/01/01 05:39:33;;;;;;;110.82;65.10;;;;;;;2.78;100.00;99468.22;5071157;28;20099;-72
2024/01/01 05:41:59;;;;;;;137.45;75.28;;;;;;;2.72;100.00;99458.28;5069750;28;20071;-72
2024/01/01 05:44:24;;;;;;;133.02;76.22;;;;;;;2.84;100.00;99455.19;5071029;28;20389;-72
2024/01/01 05:46:50;;;;;;;135.93;71.35;;;;;;;2.90;100.00;99448.53;5070723;28;20443;-72
2024/01/01 05:49:17;;;;;;;140.88;74.75;;;;;;;2.79;100.00;99450.53;5054098;28;20059;-72
2024/01/01 05:51:42;;;;;;;138.57;77.00;;;;;;;2.95;100.00;99454.00;5049083;28;20042;-74
2024/01/01 05:54:08;;;;;;;149.05;83.45;;;;;;;2.80;100.00;99460.47;5053503;28;20029;-74
2024/01/01 05:56:33;;;;;;;143.27;80.47;;;;;;;3.00;100.00;99469.75;5050940;28;20460;-74
2024/01/01 05:58:59;;;;;;;147.57;81.88;;;;;;;2.95;100.00;99459.53;5050869;28;20021;-74
2024/01/01 06:01:25;;;;;;;150.68;82.40;;;;;;;3.03;100.00;99463.66;5056593;28;20016;-72
2024/01/01 06:03:50;;;;;;;134.93;77.25;;;;;;;3.07;100.00;99456.44;5070832;28;20035;-76
2024/01/01 06:06:16;;;;;;;108.85;62.13;;;;;;;2.94;100.00;99450.44;5070995;28;20032;-74
2024/01/01 06:08:41;;;;;;;120.57;64.07;;;;;;;2.82;100.00;99449.94;5052579;28;20086;-74
2024/01/01 06:11:07;;;;;;;119.38;67.15;;;;;;;2.72;100.00;99453.59;5070086;28;20043;-73
2024/01/01 06:13:33;;;;;;;121.90;70.18;;;;;;;2.33;100.00;99459.78;5050660;28;20033;-72
2024/01/01 06:15:59;;;;;;;113.05;64.25;;;;;;;2.27;100.00;99466.44;5032884;28;20025;-72
2024/01/01 06:18:25;;;;;;;110.70;63.40;;;;;;;2.48;100.00;99458.91;5057988;28;20031;-73
2024/01/01 06:20:51;;;;;;;123.72;71.30;;;;;;;2.68;100.00;99463.53;5090966;28;20035;-72
2024/01/01 06:23:16;;;;;;;136.30;71.90;;;;;;;2.09;100.00;99475.03;5087275;28;20020;-73
2024/01/01 06:25:41;;;;;;;113.93;67.15;;;;;;;2.52;100.00;99469.13;5050913;28;20028;-73
2024/01/01 06:28:07;;;;;;;104.63;58.88;;;;;;;2.61;100.00;99479.59;5070727;28;20060;-72
2024/01/01 06:30:34;;;;;;;103.00;57.90;;;;;;;2.48;100.00;99486.53;5071391;28;20039;-73
2024/01/01 06:33:01;;;;;;;96.57;53.95;;;;;;;2.66;100.00;99488.69;5060483;28;20044;-73
2024/01/01 06:35:30;;;;;;;93.47;56.22;;;;;;;2.76;100.00;99482.28;5050827;28;20025;-70
2024/01/01 06:37:58;;;;;;;99.07;54.58;;;;;;;2.81;100.00;99479.50;5064535;28;20033;-73
2024/01/01 06:40:23;;;;;;;102.85;54.88;;;;;;;2.87;100.00;99485.81;5070376;28;20439;-73
2024/01/01 06:42:49;;;;;;;107.00;62.08;;;;;;;2.60;100.00;99476.00;5066297;28;20017;-72
2024/01/01 06:45:14;;;;;;;119.68;67.85;;;;;;;2.59;100.00;99493.69;5033018;28;20032;-71
2024/01/01 06:47:40;;;;;;;144.30;81.22;;;;;;;2.50;100.00;99478.78;5050697;28;20507;-76
2024/01/01 06:50:06;;;;;;;164.40;92.53;;;;;;;2.27;100.00;99480.25;5040870;28;20035;-73
2024/01/01 06:52:31;;;;;;;131.25;71.32;;;;;;;2.09;100.00;99488.81;5056209;28;20597;-77
2024/01/01 06:54:58;;;;;;;113.95;59.70;;;;;;;1.94;100.00;99486.09;5074000;28;20054;-72
2024/01/01 06:57:24;;;;;;;116.00;61.05;;;;;;;1.88;100.00;99490.78;5074122;28;20103;-74
2024/01/01 06:59:49;;;;;;;119.95;61.90;;;;;;;1.74;100.00;99484.97;5056308;28;20032;-73
2024/01/01 07:02:15;;;;;;;107.00;58.55;;;;;;;1.59;100.00;99485.00;5073991;28;20057;-68
2024/01/01 07:04:41;;;;;;;83.18;48.42;;;;;;;1.51;100.00;99476.16;5066539;28;20508;-69
2024/01/01 07:07:06;;;;;;;101.82;54.38;;;;;;;1.59;100.00;99485.78;5070885;28;20052;-68
2024/01/01 07:09:32;;;;;;;141.90;78.97;;;;;;;1.86;100.00;99470.91;5073601;28;20083;-72
2024/01/01 07:11:57;;;;;;;153.50;79.80;;;;;;;1.74;100.00;99468.44;5049533;28;20036;-68
2024/01/01 07:14:23;;;;;;;148.10;72.65;;;;;;;1.65;100.00;99465.41;5070876;28;20029;-69
2024/01/01 07:16:52;;;;;;;119.45;62.75;;;;;;;1.80;100.00;99470.06;5072236;28;20033;-68
2024/01/01 07:19:17;;;;;;;130.43;65.95;;;;;;;2.13;100.00;99471.69;5073727;28;20056;-70
2024/01/01 07:21:43;;;;;;;115.78;61.40;;;;;;;2.51;100.00;99469.41;5073821;28;20539;-69
2024/01/01 07:24:08;;;;;;;104.15;53.20;;;;;;;2.92;100.00;99479.47;5049794;28;20085;-68
2024/01/01 07:26:34;;;;;;;102.07;53.65;;;;;;;2.85;100.00;99471.47;5071498;28;20028;-70
2024/01/01 07:28:59;;;;;;;94.68;46.50;;;;;;;2.62;100.00;99473.78;5062592;28;20052;-71
2024/01/01 07:31:25;;;;;;;79.72;44.28;;;;;;;2.79;100.00;99464.34;5059112;28;20043;-71
2024/01/01 07:33:50;;;;;;;72.32;40.75;;;;;;;3.06;100.00;99458.38;5069171;28;20032;-72
2024/01/01 07:36:16;;;;;;;78.75;42.45;;;;;;;3.16;100.00;99454.75;5050647;28;20082;-74
2024/01/01 07:38:42;;;;;;;74.55;42.33;;;;;;;3.67;100.00;99454.63;5055914;28;20370;-73
2024/01/01 07:41:08;;;;;;;108.38;54.00;;;;;;;4.08;100.00;99445.97;5063704;28;20020;-72
2024/01/01 07:43:34;;;;;;;100.10;51.53;;;;;;;4.29;100.00;99448.56;5057361;28;20028;-72
2024/01/01 07:45:59;;;;;;;133.82;66.60;;;;;;;4.63;100.00;99451.19;5064548;28;20058;-72
2024/01/01 07:48:24;;;;;;;205.05;95.80;;;;;;;4.86;100.00;99445.91;5051916;28;20078;-71
2024/01/01 07:50:50;;;;;;;195.98;142.38;;;;;;;4.90;100.00;99446.16;5070089;28;20094;-71
2024/01/01 07:53:16;;;;;;;122.93;77.30;;;;;;;5.05;100.00;99448.72;5057918;28;20021;-69
2024/01/01 07:55:41;;;;;;;113.93;66.78;;;;;;;5.10;100.00;99445.03;5066471;28;20386;-69
2024/01/01 07:58:06;;;;;;;104.03;55.28;;;;;;;5.21;100.00;99440.16;5060244;28;20025;-67
2024/01/01 08:00:32;;;;;;;88.55;49.63;;;;;;;5.26;100.00;99448.44;5070024;28;20028;-68
2024/01/01 08:02:58;;;;;;;79.85;50.85;;;;;;;5.27;100.00;99438.97;5051136;28;20021;-70
2024/01/01 08:05:24;;;;;;;80.00;49.22;;;;;;;5.45;100.00;99445.63;5069195;28;20028;-68
2024/01/01 08:07:49;;;;;;;81.20;45.47;;;;;;;5.21;100.00;99442.94;5069782;28;20068;-68
2024/01/01 08:10:15;;;;;;;75.45;44.22;;;;;;;5.30;100.00;99438.38;5063733;28;20052;-68
2024/01/01 08:12:41;;;;;;;79.45;47.65;;;;;;;5.45;100.00;99440.09;5043551;28;20032;-68
2024/01/01 08:15:07;;;;;;;74.57;45.53;;;;;;;5.61;100.00;99439.84;5051167;28;20404;-69
2024/01/01 08:17:33;;;;;;;86.78;49.33;;;;;;;5.64;100.00;99436.44;5069399;28;20420;-69
2024/01/01 08:19:58;;;;;;;83.18;47.95;;;;;;;5.86;100.00;99448.88;5048428;28;20056;-70
2024/01/01 08:22:24;;;;;;;73.43;44.60;;;;;;;5.23;100.00;99442.66;5065778;28;20029;-70
2024/01/01 08:24:49;;;;;;;66.55;40.90;;;;;;;4.86;100.00;99445.09;5062406;28;20032;-69
2024/01/01 08:27:15;;;;;;;60.10;34.95;;;;;;;4.81;100.00;99445.97;5044311;28;20090;-69
2024/01/01 08:29:42;;;;;;;68.38;39.45;;;;;;;5.13;100.00;99444.44;5045369;28;20139;-69
2024/01/01 08:32:07;;;;;;;72.97;39.85;;;;;;;5.66;100.00;99450.03;5037193;28;20493;-70
2024/01/01 08:34:34;;;;;;;67.90;38.65;;;;;;;5.92;100.00;99438.50;5065341;28;20485;-68
2024/01/01 08:37:01;;;;;;;55.90;33.63;;;;;;;6.06;100.00;99427.47;5066549;28;20033;-70
2024/01/01 08:39:27;;;;;;;57.75;32.95;;;;;;;6.27;100.00;99437.03;5067578;28;20030;-71
2024/01/01 08:41:52;;;;;;;47.28;29.60;;;;;;;6.48;100.00;99442.19;5069781;28;20116;-70
2024/01/01 08:44:18;;;;;;;43.20;26.48;;;;;;;6.41;100.00;99436.25;5039113;28;20043;-69
2024/01/01 08:46:43;;;;;;;41.63;25.88;;;;;;;6.48;100.00;99433.06;5065938;28;20040;-71
2024/01/01 08:49:09;;;;;;;44.67;25.67;;;;;;;6.50;100.00;99442.72;5073441;28;20415;-69
2024/01/01 08:51:35;;;;;;;39.90;23.48;;;;;;;6.40;100.00;99435.41;5052713;28;20033;-71
2024/01/01 08:54:03;;;;;;;39.58;24.88;;;;;;;6.58;100.00;99442.00;5057000;28;20481;-69
2024/01/01 08:56:28;;;;;;;38.40;25.23;;;;;;;6.95;100.00;99428.19;5071905;28;20031;-72
2024/01/01 08:58:54;;;;;;;34.80;22.02;;;;;;;7.08;100.00;99426.50;5089428;28;20028;-72
2024/01/01 09:01:19;;;;;;;33.88;20.92;;;;;;;7.06;100.00;99420.41;5060174;28;20090;-72
2024/01/01 09:03:45;;;;;;;32.72;20.98;;;;;;;6.90;100.00;99405.22;5066431;28;20476;-70
2024/01/01 09:06:13;;;;;;;34.45;19.25;;;;;;;6.94;100.00;99417.38;5068496;28;20043;-69
2024/01/01 09:08:39;;;;;;;32.67;20.83;;;;;;;7.10;100.00;99412.28;5049415;28;20097;-70
2024/01/01 09:11:05;;;;;;;29.83;19.38;;;;;;;7.11;100.00;99408.38;5067070;28;20028;-70
2024/01/01 09:13:31;;;;;;;30.63;18.30;;;;;;;7.21;100.00;99401.72;5068618;28;20032;-71
2024/01/01 09:15:56;;;;;;;29.15;19.67;;;;;;;7.50;100.00;99404.09;5068787;28;20035;-72
2024/01/01 09:18:22;;;;;;;27.90;18.05;;;;;;;7.59;100.00;99396.63;5069446;28;20033;-67
2024/01/01 09:20:47;;;;;;;27.77;17.58;;;;;;;7.61;100.00;99399.13;5050909;28;20102;-69
2024/01/01 09:23:13;;;;;;;36.13;21.17;;;;;;;7.82;100.00;99398.56;5069223;28;20045;-70
2024/01/01 09:25:41;;;;;;;26.17;17.20;;;;;;;8.06;100.00;99394.59;5068856;28;20037;-72
2024/01/01 09:28:07;;;;;;;28.70;18.42;;;;;;;8.25;97.90;99400.78;5066788;28;20029;-69
2024/01/01 09:30:33;;;;;;;29.25;18.38;;;;;;;8.22;97.19;99395.84;5041403;28;20467;-71
2024/01/01 09:32:58;;;;;;;30.35;16.77;;;;;;;8.21;97.96;99398.94;5057506;28;20032;-68
2024/01/01 09:35:24;;;;;;;34.55;19.30;;;;;;;8.43;96.47;99389.69;5068464;28;20637;-70
2024/01/01 09:37:52;;;;;;;27.45;17.50;;;;;;;8.04;96.11;99394.09;5059531;28;20037;-73
2024/01/01 09:40:18;;;;;;;30.75;18.52;;;;;;;8.13;97.48;99395.78;5059207;28;20055;-70
2024/01/01 09:42:47;;;;;;;32.08;19.83;;;;;;;8.13;97.66;99389.41;5043045;28;20540;-70
2024/01/01 09:45:13;;;;;;;38.42;21.60;;;;;;;8.57;96.93;99384.03;5056736;28;20492;-72
2024/01/01 09:47:40;;;;;;;40.75;22.35;;;;;;;8.52;96.22;99382.19;5058858;28;20115;-69
2024/01/01 09:50:07;;;;;;;29.00;20.17;;;;;;;8.40;95.40;99382.81;5040597;28;20041;-72
2024/01/01 09:52:33;;;;;;;35.45;23.40;;;;;;;8.43;96.07;99370.16;5055458;28;20455;-72
2024/01/01 09:54:58;;;;;;;42.97;23.58;;;;;;;8.80;97.25;99368.00;5040232;28;20033;-71
2024/01/01 09:57:24;;;;;;;38.40;23.23;;;;;;;8.93;94.77;99362.59;5068444;28;20507;-72
2024/01/01 09:59:50;;;;;;;39.53;23.67;;;;;;;8.96;93.84;99357.19;5053024;28;20032;-70
2024/01/01 10:02:15;;;;;;;39.15;24.13;;;;;;;9.00;94.14;99351.78;5068202;28;20028;-72
2024/01/01 10:04:41;;;;;;;39.40;25.98;;;;;;;9.18;92.97;99338.66;5070521;28;20031;-72
2024/01/01 10:07:06;;;;;;;46.08;27.50;;;;;;;9.31;92.33;99345.22;5069767;28;20020;-71
2024/01/01 10:09:32;;;;;;;45.17;26.35;;;;;;;9.04;93.80;99340.78;5068865;28;20049;-72
2024/01/01 10:12:11;;;;;;;42.05;26.33;;;;;;;9.20;93.04;99332.75;5065767;28;20030;-71
2024/01/01 10:14:47;;;;;;;46.85;26.00;;;;;;;9.09;92.75;99326.66;5071082;28;20031;-72
2024/01/01 10:17:14;;;;;;;45.75;27.05;;;;;;;9.43;91.57;99327.78;5070791;28;20465;-71
2024/01/01 10:19:49;;;;;;;49.75;27.20;;;;;;;9.59;91.96;99330.88;5063330;28;20086;-72
2024/01/01 10:22:14;;;;;;;42.88;24.17;;;;;;;9.59;91.04;99316.91;5060856;28;20121;-71
2024/01/01 10:24:40;;;;;;;41.30;25.27;;;;;;;9.62;90.65;99313.44;5072165;28;20036;-72
2024/01/01 10:27:07;;;;;;;44.65;26.85;;;;;;;9.74;90.69;99306.34;5063086;28;20360;-71
2024/01/01 10:29:36;;;;;;;39.65;26.05;;;;;;;9.83;89.70;99309.94;5070509;28;20017;-71
2024/01/01 10:32:04;;;;;;;48.03;25.52;;;;;;;9.91;88.58;99302.69;5073472;28;20028;-69
2024/01/01 10:34:31;;;;;;;42.65;26.17;;;;;;;9.93;88.92;99303.16;5072863;28;20077;-72
2024/01/01 10:36:58;;;;;;;45.97;25.80;;;;;;;10.04;88.85;99306.44;5055718;28;20020;-73
2024/01/01 10:39:24;;;;;;;39.42;24.08;;;;;;;10.08;87.83;99299.00;5073074;28;20044;-72
2024/01/01 10:41:50;;;;;;;36.35;20.30;;;;;;;10.15;87.61;99304.91;5051706;28;20549;-73
2024/01/01 10:44:16;;;;;;;38.83;21.10;;;;;;;10.23;86.93;99306.00;5073856;28;20020;-72
2024/01/01 10:46:46;;;;;;;35.63;21.10;;;;;;;10.35;86.93;99294.09;5072025;28;20031;-71
2024/01/01 10:49:23;;;;;;;38.67;22.33;;;;;;;10.34;85.62;99284.91;5056661;28;20078;-69
2024/01/01 10:52:24;;;;;;;34.58;22.63;;;;;;;10.44;85.65;99289.31;5070984;28;20028;-72
2024/01/01 10:54:53;;;;;;;37.05;23.50;;;;;;;10.37;86.50;99283.38;5043712;28;20044;-72
2024/01/01 10:57:57;;;;;;;36.83;21.75;;;;;;;10.44;86.37;99266.09;5052164;28;20032;-72
2024/01/01 11:00:47;;;;;;;41.38;24.25;;;;;;;10.53;85.14;99270.50;5046939;28;20104;-73
2024/01/01 11:03:14;;;;;;;41.88;25.77;;;;;;;10.63;85.71;99260.06;5051821;28;20060;-69
2024/01/01 11:05:41;;;;;;;45.00;25.88;;;;;;;10.61;85.42;99254.81;5047727;28;20124;-70
2024/01/01 11:08:06;;;;;;;46.38;27.17;;;;;;;10.73;85.22;99256.84;5069911;28;20040;-72
2024/01/01 11:10:42;;;;;;;39.08;25.00;;;;;;;10.89;85.25;99259.84;5069929;28;20155;-71